ADDS METAR Data INFO
IDs: Format: Raw Decoded Include TAF

Data at: 0318 UTC 20 Jul 2018

KHOB 200315Z AUTO 14007KT 10SM CLR 29/04 A3000 RMK AO2
KHOB 200255Z AUTO 14007KT 10SM CLR 30/04 A3000 RMK AO2
KHOB 200235Z AUTO 14007KT 10SM CLR 31/04 A2999 RMK AO2
KHOB 200215Z AUTO 14007KT 10SM CLR 32/03 A2998 RMK AO2
KHOB 200155Z AUTO 14007KT 10SM CLR 34/03 A2998 RMK AO2
KHOB 200135Z AUTO 13008KT 10SM CLR 35/03 A2997 RMK AO2
KHOB 200115Z AUTO 13011KT 10SM CLR 36/03 A2997 RMK AO2
KHOB 200055Z AUTO 13011G16KT 10SM CLR 37/03 A2996 RMK AO2
KHOB 200035Z AUTO 13013KT 10SM CLR 38/03 A2996 RMK AO2
KHOB 200015Z AUTO 15008G16KT 10SM CLR 38/03 A2996 RMK AO2
KHOB 192350Z 12010KT 10SM SKC 38/03 A2996
KHOB 192250Z 12013KT 10SM SKC 39/04 A2997
KHOB 192150Z 12006G15KT 10SM FEW120 39/04 A2998
KHOB 192050Z 12011G20KT 10SM SCT120 39/07 A3000
KHOB 191950Z 15012G20KT 10SM FEW110 38/07 A3001
KHOB 191850Z 15011G18KT 10SM SKC 38/08 A3004
KHOB 191750Z 14009G15KT 10SM SKC 37/09 A3005
KHOB 191650Z 16013KT 10SM SKC 36/09 A3006
KHOB 191550Z 15010G16KT 10SM SKC 34/09 A3006
KHOB 191450Z 16011KT 10SM SKC 32/09 A3006
KHOB 191350Z 15012KT 10SM SKC 28/09 A3005
KHOB 191250Z 18009KT 10SM SKC 26/09 A3003
KHOB 191150Z 18007KT 10SM SKC 25/09 A3003
KHOB 191135Z AUTO 18008KT 10SM CLR 26/09 A3003 RMK AO2
KHOB 191115Z AUTO 18008G14KT 10SM CLR 26/09 A3002 RMK AO2
KHOB 191055Z AUTO 19008KT 10SM FEW120 26/09 A3003 RMK AO2
KHOB 191035Z AUTO 18006KT 10SM BKN120 26/09 A3003 RMK AO2
KHOB 191015Z AUTO 19007KT 10SM FEW080 BKN120 26/09 A3003 RMK AO2
KHOB 190955Z AUTO 18007G13KT 10SM FEW049 SCT075 BKN095 26/09 A3002 RMK AO2
KHOB 190935Z AUTO 18008G14KT 10SM FEW075 SCT095 SCT120 27/09 A3003 RMK AO2
KHOB 190915Z AUTO 18010KT 10SM CLR 27/09 A3002 RMK AO2
KHOB 190855Z AUTO 19010KT 10SM FEW050 FEW065 FEW080 27/09 A3003 RMK AO2
KHOB 190835Z AUTO 19009KT 10SM FEW050 26/09 A3002 RMK AO2
KHOB 190815Z AUTO 19009KT 10SM FEW046 FEW055 26/09 A3003 RMK AO2
KHOB 190755Z AUTO 19009KT 10SM SCT044 26/09 A3002 RMK AO2
KHOB 190735Z AUTO 19010KT 10SM SCT043 26/09 A3003 RMK AO2
KHOB 190715Z AUTO 18010KT 10SM FEW044 FEW055 27/09 A3003 RMK AO2
KHOB 190655Z AUTO 18006KT 10SM FEW049 26/10 A3003 RMK AO2
KHOB 190635Z AUTO 17006KT 10SM CLR 25/10 A3003 RMK AO2
KHOB 190615Z AUTO 20003KT 10SM CLR 26/10 A3002 RMK AO2
KHOB 190555Z AUTO 19005KT 10SM CLR 27/10 A3002 RMK AO2
KHOB 190535Z AUTO 18007KT 10SM CLR 27/10 A3002 RMK AO2
KHOB 190515Z AUTO 18007KT 10SM CLR 26/10 A3002 RMK AO2
KHOB 190455Z AUTO 18006KT 10SM CLR 28/10 A3002 RMK AO2
KHOB 190435Z AUTO 19004KT 10SM CLR 28/10 A3002 RMK AO2
KHOB 190415Z AUTO 17007KT 10SM FEW044 FEW050 29/10 A3002 RMK AO2
KHOB 190355Z AUTO 17007KT 10SM CLR 30/10 A3001 RMK AO2
KHOB 190335Z AUTO 18008KT 10SM CLR 30/10 A3000 RMK AO2
KHOB 190315Z AUTO 17007KT 10SM CLR 30/10 A2999 RMK AO2
KHOB 190255Z AUTO 16006KT 10SM CLR 31/10 A2999 RMK AO2
KHOB 190235Z AUTO 15007KT 10SM CLR 31/10 A2998 RMK AO2
KHOB 190215Z AUTO 17007KT 10SM CLR 32/09 A2998 RMK AO2
KHOB 190155Z AUTO 18008KT 10SM CLR 34/09 A2998 RMK AO2
KHOB 190135Z AUTO 18010KT 10SM CLR 35/08 A2997 RMK AO2
KHOB 190115Z AUTO 00000KT 10SM CLR 36/05 A2997 RMK AO2
KHOB 190055Z AUTO 00000KT 10SM CLR 37/06 A2997 RMK AO2
KHOB 190035Z AUTO 16003KT 10SM CLR 37/05 A2997 RMK AO2
KHOB 190015Z AUTO 17006KT 10SM FEW120 37/06 A2997 RMK AO2
KHOB 182350Z 00000KT 10SM FEW120 38/06 A2998
KHOB 182250Z VRB04KT 10SM SCT120 37/07 A3000
KHOB 182150Z 23005KT 10SM SCT110 38/07 A3001
KHOB 182050Z VRB05KT 10SM SCT110 38/08 A3003
KHOB 181950Z VRB05KT 10SM SCT100 37/08 A3005
KHOB 181850Z VRB04KT 10SM SCT100 36/09 A3008
KHOB 181750Z 25010G15KT 10SM SCT100 36/10 A3010
KHOB 181650Z 20008KT 10SM SKC 34/11 A3012
KHOB 181550Z 20009G15KT 10SM SKC 32/12 A3013